This is the latest recevied weather packets stored in our database for station/object KB3UMW-13. If no packets are shown the sender has not sent any weather packets the latest 10 day(s).
| Time | Temp. | Humidity | Pressure | Rain* | Wind** | Luminosity | Snow |
|---|---|---|---|---|---|---|---|
| 1777577180 | 5.56° C | 97% | 1011.9 hPa | 1.27 mm | - | 78 W/m² | - |
| 1777576876 | 5.56° C | 96% | 1011.9 hPa | 0.51 mm | - | 78 W/m² | - |
| 1777576574 | 5.56° C | 96% | 1011.8 hPa | 1.27 mm | - | 170 W/m² | - |
| 1777576271 | 5.56° C | 96% | 1011.9 hPa | 3.05 mm | - | 163 W/m² | - |
| 1777575967 | 5.56° C | 96% | 1012 hPa | 4.32 mm | - | 132 W/m² | - |
| 1777575663 | 5.56° C | 95% | 1011.7 hPa | 7.11 mm | - | 171 W/m² | - |
| 1777575359 | 6.67° C | 90% | 1012.1 hPa | 3.56 mm | - | 93 W/m² | - |
| 1777575056 | 8.33° C | 85% | 1011.4 hPa | 0.51 mm | - | 92 W/m² | - |
| 1777574751 | 8.89° C | 84% | 1011.2 hPa | 0 mm | - | 174 W/m² | - |
| 1777574449 | 8.89° C | 80% | 1011.4 hPa | 0 mm | - | 273 W/m² | - |
| 1777574144 | 8.89° C | 79% | 1011.1 hPa | 0 mm | - | 213 W/m² | - |
| 1777573840 | 8.89° C | 82% | 1011.5 hPa | 0 mm | - | 362 W/m² | - |
| 1777573535 | 9.44° C | 81% | 1011.4 hPa | 0 mm | - | 344 W/m² | - |
| 1777573232 | 7.78° C | 81% | 1011.5 hPa | 0 mm | - | 313 W/m² | - |
| 1777572928 | 7.78° C | 84% | 1011.5 hPa | 0 mm | - | 347 W/m² | - |
| 1777572624 | 7.22° C | 85% | 1011.5 hPa | 0 mm | - | 146 W/m² | - |
| 1777572324 | 7.22° C | 82% | 1011.3 hPa | 0 mm | - | 151 W/m² | - |
| 1777572021 | 7.22° C | 88% | 1011.6 hPa | 0 mm | - | 124 W/m² | - |
| 1777571720 | 7.22° C | 83% | 1011.2 hPa | 0 mm | - | 163 W/m² | - |
| 1777571419 | 7.78° C | 80% | 1011.2 hPa | 0 mm | - | 114 W/m² | - |
| 1777571114 | 8.33° C | 80% | 1011.4 hPa | 0 mm | - | 122 W/m² | - |
| 1777570810 | 8.33° C | 80% | 1011.3 hPa | 0 mm | - | 176 W/m² | - |
| 1777570506 | 8.89° C | 81% | 1011.3 hPa | 0 mm | - | 285 W/m² | - |
| 1777570203 | 9.44° C | 76% | 1011.1 hPa | 0 mm | - | 246 W/m² | - |
| 1777569898 | 9.44° C | 77% | 1011 hPa | 0 mm | - | 236 W/m² | - |
* Rain latest hour (hover to see other rain measurements)
** Current wind speed in m/s (hover to see current wind gust speed)